sensor_id;sensor_type;location;lat;lon;timestamp;pressure;altitude;pressure_sealevel;temperature;humidity
37132;BME280;23035;50.032;21.978;2022-10-26T00:01:16;66520.56;;;12.86;100.00
37132;BME280;23035;50.032;21.978;2022-10-26T00:06:22;66404.00;;;11.75;100.00
37132;BME280;23035;50.032;21.978;2022-10-26T00:11:28;66396.06;;;11.70;100.00
37132;BME280;23035;50.032;21.978;2022-10-26T00:16:31;66357.78;;;11.29;100.00
37132;BME280;23035;50.032;21.978;2022-10-26T00:21:35;66296.25;;;10.76;100.00
37132;BME280;23035;50.032;21.978;2022-10-26T00:26:40;66317.53;;;10.91;100.00
37132;BME280;23035;50.032;21.978;2022-10-26T00:31:44;66329.44;;;11.05;100.00
37132;BME280;23035;50.032;21.978;2022-10-26T00:36:48;66337.03;;;11.14;100.00
37132;BME280;23035;50.032;21.978;2022-10-26T00:41:53;66312.31;;;10.91;100.00
37132;BME280;23035;50.032;21.978;2022-10-26T00:46:57;66259.16;;;10.38;100.00
37132;BME280;23035;50.032;21.978;2022-10-26T00:52:00;66230.19;;;10.11;100.00
37132;BME280;23035;50.032;21.978;2022-10-26T00:57:06;66233.84;;;10.12;100.00
37132;BME280;23035;50.032;21.978;2022-10-26T01:02:10;66233.84;;;10.12;100.00
37132;BME280;23035;50.032;21.978;2022-10-26T01:07:14;66249.06;;;10.31;100.00
37132;BME280;23035;50.032;21.978;2022-10-26T01:12:19;66269.88;;;10.48;100.00
37132;BME280;23035;50.032;21.978;2022-10-26T01:17:38;66298.22;;;10.73;100.00
37132;BME280;23035;50.032;21.978;2022-10-26T01:22:50;66333.81;;;11.11;100.00
37132;BME280;23035;50.032;21.978;2022-10-26T01:27:59;66337.38;;;11.10;100.00
37132;BME280;23035;50.032;21.978;2022-10-26T01:33:31;66334.16;;;11.07;100.00
37132;BME280;23035;50.032;21.978;2022-10-26T01:38:48;66327.28;;;11.03;100.00
37132;BME280;23035;50.032;21.978;2022-10-26T01:43:55;66369.66;;;11.43;100.00
37132;BME280;23035;50.032;21.978;2022-10-26T01:49:06;66386.84;;;11.59;100.00
37132;BME280;23035;50.032;21.978;2022-10-26T01:54:11;66408.41;;;11.82;100.00
37132;BME280;23035;50.032;21.978;2022-10-26T01:59:41;66457.25;;;12.28;100.00
37132;BME280;23035;50.032;21.978;2022-10-26T02:05:03;66435.19;;;12.05;100.00
37132;BME280;23035;50.032;21.978;2022-10-26T02:10:17;66429.72;;;11.97;100.00
37132;BME280;23035;50.032;21.978;2022-10-26T02:15:31;66435.19;;;12.05;100.00
37132;BME280;23035;50.032;21.978;2022-10-26T02:20:40;66483.59;;;12.53;100.00
37132;BME280;23035;50.032;21.978;2022-10-26T02:25:50;66539.84;;;13.02;100.00
37132;BME280;23035;50.032;21.978;2022-10-26T02:30:57;66420.31;;;11.96;100.00
37132;BME280;23035;50.032;21.978;2022-10-26T02:36:06;66378.78;;;11.52;100.00
37132;BME280;23035;50.032;21.978;2022-10-26T02:41:13;66397.56;;;11.69;100.00
37132;BME280;23035;50.032;21.978;2022-10-26T02:46:19;66402.88;;;11.72;100.00
37132;BME280;23035;50.032;21.978;2022-10-26T02:51:30;66359.47;;;11.33;100.00
37132;BME280;23035;50.032;21.978;2022-10-26T02:56:43;66364.75;;;11.36;100.00
37132;BME280;23035;50.032;21.978;2022-10-26T03:01:50;66406.16;;;11.77;100.00
37132;BME280;23035;50.032;21.978;2022-10-26T03:06:56;66443.69;;;12.11;100.00
37132;BME280;23035;50.032;21.978;2022-10-26T03:12:00;66399.72;;;11.71;100.00
37132;BME280;23035;50.032;21.978;2022-10-26T03:17:03;66411.09;;;11.85;100.00
37132;BME280;23035;50.032;21.978;2022-10-26T03:22:08;66407.22;;;11.78;100.00
37132;BME280;23035;50.032;21.978;2022-10-26T03:27:12;66405.09;;;11.76;100.00
37132;BME280;23035;50.032;21.978;2022-10-26T03:32:16;66420.22;;;11.93;100.00
37132;BME280;23035;50.032;21.978;2022-10-26T03:37:21;66407.53;;;11.71;100.00
37132;BME280;23035;50.032;21.978;2022-10-26T03:42:25;66418.44;;;11.87;100.00
37132;BME280;23035;50.032;21.978;2022-10-26T03:47:29;66451.81;;;12.21;100.00
37132;BME280;23035;50.032;21.978;2022-10-26T03:52:34;66432.50;;;12.02;100.00
37132;BME280;23035;50.032;21.978;2022-10-26T03:57:41;66473.38;;;12.44;100.00
37132;BME280;23035;50.032;21.978;2022-10-26T04:02:53;66443.78;;;12.13;100.00
37132;BME280;23035;50.032;21.978;2022-10-26T04:07:59;66472.22;;;12.40;100.00
37132;BME280;23035;50.032;21.978;2022-10-26T04:13:04;66571.72;;;13.37;100.00
37132;BME280;23035;50.032;21.978;2022-10-26T04:18:08;66566.88;;;13.32;100.00
37132;BME280;23035;50.032;21.978;2022-10-26T04:23:16;66584.53;;;13.46;100.00
37132;BME280;23035;50.032;21.978;2022-10-26T04:28:21;66612.03;;;13.75;100.00
37132;BME280;23035;50.032;21.978;2022-10-26T04:33:24;66542.75;;;13.12;100.00
37132;BME280;23035;50.032;21.978;2022-10-26T04:38:30;66613.56;;;13.74;100.00
37132;BME280;23035;50.032;21.978;2022-10-26T04:43:33;66558.66;;;13.19;100.00
37132;BME280;23035;50.032;21.978;2022-10-26T04:48:37;66544.59;;;13.04;100.00
37132;BME280;23035;50.032;21.978;2022-10-26T04:53:43;66616.88;;;13.80;100.00
37132;BME280;23035;50.032;21.978;2022-10-26T04:58:47;66554.44;;;13.18;100.00
37132;BME280;23035;50.032;21.978;2022-10-26T05:03:51;66520.50;;;12.83;100.00
37132;BME280;23035;50.032;21.978;2022-10-26T05:08:56;66544.91;;;13.14;100.00
37132;BME280;23035;50.032;21.978;2022-10-26T05:14:00;66623.31;;;13.86;100.00
37132;BME280;23035;50.032;21.978;2022-10-26T05:19:04;66670.66;;;14.30;100.00
37132;BME280;23035;50.032;21.978;2022-10-26T05:24:09;66647.44;;;14.06;100.00
37132;BME280;23035;50.032;21.978;2022-10-26T05:29:14;66659.97;;;14.23;100.00
37132;BME280;23035;50.032;21.978;2022-10-26T05:34:17;66547.44;;;13.11;100.00
37132;BME280;23035;50.032;21.978;2022-10-26T05:39:22;66523.81;;;12.89;100.00
37132;BME280;23035;50.032;21.978;2022-10-26T05:44:26;66502.75;;;12.67;100.00
37132;BME280;23035;50.032;21.978;2022-10-26T05:49:30;66494.72;;;12.59;100.00
37132;BME280;23035;50.032;21.978;2022-10-26T05:54:35;66485.19;;;12.55;100.00
37132;BME280;23035;50.032;21.978;2022-10-26T05:59:39;66505.06;;;12.74;100.00
37132;BME280;23035;50.032;21.978;2022-10-26T06:04:44;66480.44;;;12.53;100.00
37132;BME280;23035;50.032;21.978;2022-10-26T06:09:52;66499.09;;;12.66;100.00
37132;BME280;23035;50.032;21.978;2022-10-26T06:14:57;66518.41;;;12.84;100.00
37132;BME280;23035;50.032;21.978;2022-10-26T06:20:13;66578.72;;;13.43;100.00
37132;BME280;23035;50.032;21.978;2022-10-26T06:25:27;66618.03;;;13.83;100.00
37132;BME280;23035;50.032;21.978;2022-10-26T06:30:35;66615.09;;;13.73;100.00
37132;BME280;23035;50.032;21.978;2022-10-26T06:35:45;66535.69;;;13.03;100.00
37132;BME280;23035;50.032;21.978;2022-10-26T06:40:55;66531.84;;;12.97;100.00
37132;BME280;23035;50.032;21.978;2022-10-26T06:46:06;66490.56;;;12.60;100.00
37132;BME280;23035;50.032;21.978;2022-10-26T06:51:15;66606.66;;;13.70;100.00
37132;BME280;23035;50.032;21.978;2022-10-26T06:56:21;66608.28;;;13.71;100.00
37132;BME280;23035;50.032;21.978;2022-10-26T07:01:26;66574.41;;;13.39;100.00
37132;BME280;23035;50.032;21.978;2022-10-26T07:06:30;66531.41;;;12.99;100.00
37132;BME280;23035;50.032;21.978;2022-10-26T07:11:39;66564.75;;;13.30;100.00
37132;BME280;23035;50.032;21.978;2022-10-26T07:16:43;66557.22;;;13.23;100.00
37132;BME280;23035;50.032;21.978;2022-10-26T07:21:47;66586.69;;;13.48;100.00
37132;BME280;23035;50.032;21.978;2022-10-26T07:26:54;66623.94;;;13.89;100.00
37132;BME280;23035;50.032;21.978;2022-10-26T07:31:58;66583.38;;;13.43;100.00
37132;BME280;23035;50.032;21.978;2022-10-26T07:37:02;66634.00;;;13.93;100.00
37132;BME280;23035;50.032;21.978;2022-10-26T07:42:07;66653.97;;;14.15;100.00
37132;BME280;23035;50.032;21.978;2022-10-26T07:47:11;66577.03;;;13.39;100.00
37132;BME280;23035;50.032;21.978;2022-10-26T07:52:15;66595.28;;;13.57;100.00
37132;BME280;23035;50.032;21.978;2022-10-26T07:57:20;66601.75;;;13.63;100.00
37132;BME280;23035;50.032;21.978;2022-10-26T08:02:24;66624.94;;;13.87;100.00
37132;BME280;23035;50.032;21.978;2022-10-26T08:07:28;66700.72;;;14.56;100.00
37132;BME280;23035;50.032;21.978;2022-10-26T08:12:33;66765.34;;;15.20;100.00
37132;BME280;23035;50.032;21.978;2022-10-26T08:17:37;66688.31;;;14.45;100.00
37132;BME280;23035;50.032;21.978;2022-10-26T08:22:41;66672.72;;;14.30;100.00
37132;BME280;23035;50.032;21.978;2022-10-26T08:27:46;66677.09;;;14.37;100.00
37132;BME280;23035;50.032;21.978;2022-10-26T08:32:57;66733.53;;;14.87;100.00
37132;BME280;23035;50.032;21.978;2022-10-26T08:38:01;66722.69;;;14.75;100.00
37132;BME280;23035;50.032;21.978;2022-10-26T08:43:12;66712.00;;;14.67;100.00
37132;BME280;23035;50.032;21.978;2022-10-26T08:48:21;66745.75;;;14.94;100.00
37132;BME280;23035;50.032;21.978;2022-10-26T08:53:31;66812.13;;;15.62;100.00
37132;BME280;23035;50.032;21.978;2022-10-26T08:58:40;66810.50;;;15.60;100.00
37132;BME280;23035;50.032;21.978;2022-10-26T09:03:46;66898.31;;;16.43;100.00
37132;BME280;23035;50.032;21.978;2022-10-26T09:08:57;66851.97;;;15.99;100.00
37132;BME280;23035;50.032;21.978;2022-10-26T09:14:10;66839.13;;;15.90;100.00
37132;BME280;23035;50.032;21.978;2022-10-26T09:19:42;66884.38;;;16.32;100.00
37132;BME280;23035;50.032;21.978;2022-10-26T09:24:51;66777.72;;;15.32;100.00
37132;BME280;23035;50.032;21.978;2022-10-26T09:29:59;66828.28;;;15.77;100.00
37132;BME280;23035;50.032;21.978;2022-10-26T09:35:12;66824.66;;;15.78;100.00
37132;BME280;23035;50.032;21.978;2022-10-26T09:40:22;66798.66;;;15.49;100.00
37132;BME280;23035;50.032;21.978;2022-10-26T09:45:32;66853.50;;;15.98;100.00
37132;BME280;23035;50.032;21.978;2022-10-26T09:50:39;66871.91;;;16.18;100.00
37132;BME280;23035;50.032;21.978;2022-10-26T09:55:48;66894.03;;;16.42;100.00
37132;BME280;23035;50.032;21.978;2022-10-26T10:00:54;66919.75;;;16.61;100.00
37132;BME280;23035;50.032;21.978;2022-10-26T10:06:14;66934.94;;;16.78;100.00
37132;BME280;23035;50.032;21.978;2022-10-26T10:11:18;66922.63;;;16.69;100.00
37132;BME280;23035;50.032;21.978;2022-10-26T10:16:24;66874.19;;;16.25;100.00
37132;BME280;23035;50.032;21.978;2022-10-26T10:21:36;66863.28;;;16.10;100.00
37132;BME280;23035;50.032;21.978;2022-10-26T10:26:55;66786.19;;;15.35;100.00
37132;BME280;23035;50.032;21.978;2022-10-26T10:32:02;66867.59;;;16.14;100.00
37132;BME280;23035;50.032;21.978;2022-10-26T10:37:12;66863.28;;;16.10;100.00
37132;BME280;23035;50.032;21.978;2022-10-26T10:42:25;66833.75;;;15.85;100.00
37132;BME280;23035;50.032;21.978;2022-10-26T10:47:32;66848.81;;;15.99;100.00
37132;BME280;23035;50.032;21.978;2022-10-26T10:52:36;66866.53;;;16.13;100.00
37132;BME280;23035;50.032;21.978;2022-10-26T10:57:51;66898.91;;;16.46;100.00
37132;BME280;23035;50.032;21.978;2022-10-26T11:08:43;66883.13;;;16.26;100.00
37132;BME280;23035;50.032;21.978;2022-10-26T11:13:52;66864.34;;;16.11;100.00
37132;BME280;23035;50.032;21.978;2022-10-26T11:19:01;66888.59;;;16.34;100.00
37132;BME280;23035;50.032;21.978;2022-10-26T11:24:17;66993.28;;;17.38;100.00
37132;BME280;23035;50.032;21.978;2022-10-26T11:29:30;67076.28;;;18.14;99.07
37132;BME280;23035;50.032;21.978;2022-10-26T11:34:45;66964.66;;;17.08;100.00
37132;BME280;23035;50.032;21.978;2022-10-26T11:40:00;66964.59;;;17.06;100.00
37132;BME280;23035;50.032;21.978;2022-10-26T11:45:12;67143.25;;;18.79;90.53
37132;BME280;23035;50.032;21.978;2022-10-26T11:50:21;67271.69;;;19.98;80.07
37132;BME280;23035;50.032;21.978;2022-10-26T11:55:27;67190.19;;;19.24;83.60
37132;BME280;23035;50.032;21.978;2022-10-26T12:00:31;67174.47;;;19.06;86.48
37132;BME280;23035;50.032;21.978;2022-10-26T12:05:41;67373.25;;;20.94;77.50
37132;BME280;23035;50.032;21.978;2022-10-26T12:10:51;67450.03;;;21.66;70.39
37132;BME280;23035;50.032;21.978;2022-10-26T12:16:03;67530.06;;;22.41;65.70
37132;BME280;23035;50.032;21.978;2022-10-26T12:21:10;67414.28;;;21.30;69.47
37132;BME280;23035;50.032;21.978;2022-10-26T12:26:37;67460.78;;;21.73;69.79
37132;BME280;23035;50.032;21.978;2022-10-26T12:31:42;67615.13;;;23.24;63.75
37132;BME280;23035;50.032;21.978;2022-10-26T12:36:47;67443.44;;;21.55;71.06
37132;BME280;23035;50.032;21.978;2022-10-26T12:41:56;67544.63;;;22.52;67.29
37132;BME280;23035;50.032;21.978;2022-10-26T12:47:01;67352.59;;;20.69;73.44
37132;BME280;23035;50.032;21.978;2022-10-26T12:52:17;67387.38;;;21.09;73.19
37132;BME280;23035;50.032;21.978;2022-10-26T12:57:29;67083.22;;;18.18;89.96
37132;BME280;23035;50.032;21.978;2022-10-26T13:02:44;67035.97;;;17.81;95.14
37132;BME280;23035;50.032;21.978;2022-10-26T13:08:00;67257.63;;;19.85;82.87
37132;BME280;23035;50.032;21.978;2022-10-26T13:13:07;67450.03;;;21.66;73.12
37132;BME280;23035;50.032;21.978;2022-10-26T13:18:15;67385.69;;;21.05;73.04
37132;BME280;23035;50.032;21.978;2022-10-26T13:23:23;67526.84;;;22.38;66.82
37132;BME280;23035;50.032;21.978;2022-10-26T13:28:42;67324.63;;;20.48;73.79
37132;BME280;23035;50.032;21.978;2022-10-26T13:33:49;67356.03;;;20.80;70.91
37132;BME280;23035;50.032;21.978;2022-10-26T13:38:58;67298.69;;;20.23;74.00
37132;BME280;23035;50.032;21.978;2022-10-26T13:44:06;67376.50;;;20.97;69.33
37132;BME280;23035;50.032;21.978;2022-10-26T13:49:20;67434.28;;;21.48;69.04
37132;BME280;23035;50.032;21.978;2022-10-26T13:54:29;67349.53;;;20.74;70.18
37132;BME280;23035;50.032;21.978;2022-10-26T13:59:42;67383.47;;;21.01;71.40
37132;BME280;23035;50.032;21.978;2022-10-26T14:04:48;67453.75;;;21.67;69.36
37132;BME280;23035;50.032;21.978;2022-10-26T14:09:55;67348.88;;;20.68;70.90
37132;BME280;23035;50.032;21.978;2022-10-26T14:15:05;67244.09;;;19.69;77.43
37132;BME280;23035;50.032;21.978;2022-10-26T14:20:16;67282.00;;;20.10;76.18
37132;BME280;23035;50.032;21.978;2022-10-26T14:25:23;67280.31;;;20.06;75.85
37132;BME280;23035;50.032;21.978;2022-10-26T14:30:48;67253.31;;;19.81;78.07
37132;BME280;23035;50.032;21.978;2022-10-26T14:35:54;67238.19;;;19.66;78.48
37132;BME280;23035;50.032;21.978;2022-10-26T14:40:59;67251.66;;;19.76;75.87
37132;BME280;23035;50.032;21.978;2022-10-26T14:46:04;67317.53;;;20.39;71.66
37132;BME280;23035;50.032;21.978;2022-10-26T14:51:14;67233.41;;;19.64;74.92
37132;BME280;23035;50.032;21.978;2022-10-26T14:56:22;67306.25;;;20.30;71.85
37132;BME280;23035;50.032;21.978;2022-10-26T15:01:33;67284.03;;;20.07;72.62
37132;BME280;23035;50.032;21.978;2022-10-26T15:06:50;67225.16;;;19.52;74.71
37132;BME280;23035;50.032;21.978;2022-10-26T15:11:54;66970.00;;;17.11;88.78
37132;BME280;23035;50.032;21.978;2022-10-26T15:17:00;66908.00;;;16.52;94.64
37132;BME280;23035;50.032;21.978;2022-10-26T15:22:04;66784.03;;;15.33;100.00
37132;BME280;23035;50.032;21.978;2022-10-26T15:27:11;66724.44;;;14.81;100.00
37132;BME280;23035;50.032;21.978;2022-10-26T15:32:25;66682.41;;;14.39;100.00
37132;BME280;23035;50.032;21.978;2022-10-26T15:37:29;66657.81;;;14.21;100.00
37132;BME280;23035;50.032;21.978;2022-10-26T15:42:34;66639.47;;;14.01;100.00
37132;BME280;23035;50.032;21.978;2022-10-26T15:47:41;66729.69;;;14.81;100.00
37132;BME280;23035;50.032;21.978;2022-10-26T15:52:46;66644.84;;;14.06;100.00
37132;BME280;23035;50.032;21.978;2022-10-26T15:57:51;66669.19;;;14.34;100.00
37132;BME280;23035;50.032;21.978;2022-10-26T16:02:56;66605.59;;;13.69;100.00
37132;BME280;23035;50.032;21.978;2022-10-26T16:08:00;66530.69;;;12.93;100.00
37132;BME280;23035;50.032;21.978;2022-10-26T16:13:04;66481.38;;;12.49;100.00
37132;BME280;23035;50.032;21.978;2022-10-26T16:18:14;66456.66;;;12.25;100.00
37132;BME280;23035;50.032;21.978;2022-10-26T16:23:18;66474.91;;;12.43;100.00
37132;BME280;23035;50.032;21.978;2022-10-26T16:28:22;66428.28;;;12.01;100.00
37132;BME280;23035;50.032;21.978;2022-10-26T16:33:27;66430.34;;;12.00;100.00
37132;BME280;23035;50.032;21.978;2022-10-26T16:38:32;66382.63;;;11.58;100.00
37132;BME280;23035;50.032;21.978;2022-10-26T16:43:37;66388.00;;;11.63;100.00
37132;BME280;23035;50.032;21.978;2022-10-26T16:48:43;66415.91;;;11.89;100.00
37132;BME280;23035;50.032;21.978;2022-10-26T16:53:48;66465.16;;;12.31;100.00
37132;BME280;23035;50.032;21.978;2022-10-26T16:58:55;66432.03;;;12.04;100.00
37132;BME280;23035;50.032;21.978;2022-10-26T17:04:00;66480.38;;;12.50;100.00
37132;BME280;23035;50.032;21.978;2022-10-26T17:09:05;66555.06;;;13.21;100.00
37132;BME280;23035;50.032;21.978;2022-10-26T17:14:09;66492.56;;;12.57;100.00
37132;BME280;23035;50.032;21.978;2022-10-26T17:19:14;66502.84;;;12.69;100.00
37132;BME280;23035;50.032;21.978;2022-10-26T17:24:18;66431.50;;;12.04;100.00
37132;BME280;23035;50.032;21.978;2022-10-26T17:29:22;66431.50;;;12.04;100.00
37132;BME280;23035;50.032;21.978;2022-10-26T17:34:27;66477.66;;;12.48;100.00
37132;BME280;23035;50.032;21.978;2022-10-26T17:39:31;66547.50;;;13.14;100.00
37132;BME280;23035;50.032;21.978;2022-10-26T17:44:35;66578.72;;;13.43;100.00
37132;BME280;23035;50.032;21.978;2022-10-26T17:49:42;66578.56;;;13.38;100.00
37132;BME280;23035;50.032;21.978;2022-10-26T17:54:45;66544.66;;;13.06;100.00
37132;BME280;23035;50.032;21.978;2022-10-26T17:59:49;66552.25;;;13.16;100.00
37132;BME280;23035;50.032;21.978;2022-10-26T18:04:54;66565.75;;;13.29;100.00
37132;BME280;23035;50.032;21.978;2022-10-26T18:09:59;66463.00;;;12.29;100.00
37132;BME280;23035;50.032;21.978;2022-10-26T18:15:23;66505.59;;;12.74;100.00
37132;BME280;23035;50.032;21.978;2022-10-26T18:20:28;66432.31;;;11.97;100.00
37132;BME280;23035;50.032;21.978;2022-10-26T18:25:32;66458.72;;;12.25;100.00
37132;BME280;23035;50.032;21.978;2022-10-26T18:30:37;66441.00;;;12.08;100.00
37132;BME280;23035;50.032;21.978;2022-10-26T18:35:43;66459.97;;;12.31;100.00
37132;BME280;23035;50.032;21.978;2022-10-26T18:40:51;66442.69;;;12.12;100.00
37132;BME280;23035;50.032;21.978;2022-10-26T18:46:01;66437.31;;;12.07;100.00
37132;BME280;23035;50.032;21.978;2022-10-26T18:51:09;66484.66;;;12.54;100.00
37132;BME280;23035;50.032;21.978;2022-10-26T18:56:16;66452.97;;;12.24;100.00
37132;BME280;23035;50.032;21.978;2022-10-26T19:01:21;66484.06;;;12.51;100.00
37132;BME280;23035;50.032;21.978;2022-10-26T19:06:29;66470.69;;;12.41;100.00
37132;BME280;23035;50.032;21.978;2022-10-26T19:11:34;66431.88;;;11.99;100.00
37132;BME280;23035;50.032;21.978;2022-10-26T19:16:38;66401.88;;;11.73;100.00
37132;BME280;23035;50.032;21.978;2022-10-26T19:21:51;66420.75;;;11.94;100.00
37132;BME280;23035;50.032;21.978;2022-10-26T19:26:55;66433.09;;;12.05;100.00
37132;BME280;23035;50.032;21.978;2022-10-26T19:31:59;66425.44;;;11.93;100.00
37132;BME280;23035;50.032;21.978;2022-10-26T19:37:05;66433.50;;;12.01;100.00
37132;BME280;23035;50.032;21.978;2022-10-26T19:42:11;66407.34;;;11.81;100.00
37132;BME280;23035;50.032;21.978;2022-10-26T19:47:14;66422.91;;;11.96;100.00
37132;BME280;23035;50.032;21.978;2022-10-26T19:52:20;66477.59;;;12.45;100.00
37132;BME280;23035;50.032;21.978;2022-10-26T19:57:23;66463.63;;;12.32;100.00
37132;BME280;23035;50.032;21.978;2022-10-26T20:02:27;66428.72;;;11.99;100.00
37132;BME280;23035;50.032;21.978;2022-10-26T20:07:32;66452.81;;;12.19;100.00
37132;BME280;23035;50.032;21.978;2022-10-26T20:12:36;66417.56;;;11.91;100.00
37132;BME280;23035;50.032;21.978;2022-10-26T20:17:40;66433.66;;;12.06;100.00
37132;BME280;23035;50.032;21.978;2022-10-26T20:22:45;66400.16;;;11.69;100.00
37132;BME280;23035;50.032;21.978;2022-10-26T20:27:50;66348.22;;;11.23;100.00
37132;BME280;23035;50.032;21.978;2022-10-26T20:32:55;66363.31;;;11.39;100.00
37132;BME280;23035;50.032;21.978;2022-10-26T20:38:01;66365.91;;;11.39;100.00
37132;BME280;23035;50.032;21.978;2022-10-26T20:43:07;66334.25;;;11.09;100.00
37132;BME280;23035;50.032;21.978;2022-10-26T20:48:12;66285.88;;;10.61;100.00
37132;BME280;23035;50.032;21.978;2022-10-26T20:53:19;66320.47;;;11.01;100.00
37132;BME280;23035;50.032;21.978;2022-10-26T20:58:34;66284.91;;;10.62;100.00
37132;BME280;23035;50.032;21.978;2022-10-26T21:03:40;66263.91;;;10.40;100.00
37132;BME280;23035;50.032;21.978;2022-10-26T21:08:48;66297.16;;;10.72;100.00
37132;BME280;23035;50.032;21.978;2022-10-26T21:13:53;66297.16;;;10.72;100.00
37132;BME280;23035;50.032;21.978;2022-10-26T21:18:58;66284.28;;;10.59;100.00
37132;BME280;23035;50.032;21.978;2022-10-26T21:24:04;66382.53;;;11.55;100.00
37132;BME280;23035;50.032;21.978;2022-10-26T21:29:09;66405.63;;;11.77;100.00
37132;BME280;23035;50.032;21.978;2022-10-26T21:34:13;66434.09;;;12.04;100.00
37132;BME280;23035;50.032;21.978;2022-10-26T21:39:18;66416.84;;;11.85;100.00
37132;BME280;23035;50.032;21.978;2022-10-26T21:44:22;66431.31;;;11.99;100.00
37132;BME280;23035;50.032;21.978;2022-10-26T21:49:42;66405.09;;;11.76;100.00
37132;BME280;23035;50.032;21.978;2022-10-26T21:54:47;66410.91;;;11.80;100.00
37132;BME280;23035;50.032;21.978;2022-10-26T21:59:51;66454.66;;;12.28;100.00
37132;BME280;23035;50.032;21.978;2022-10-26T22:04:55;66360.63;;;11.37;100.00
37132;BME280;23035;50.032;21.978;2022-10-26T22:10:00;66355.16;;;11.29;100.00
37132;BME280;23035;50.032;21.978;2022-10-26T22:15:13;66306.78;;;10.81;100.00
37132;BME280;23035;50.032;21.978;2022-10-26T22:20:17;66281.84;;;10.65;100.00
37132;BME280;23035;50.032;21.978;2022-10-26T22:25:22;66279.53;;;10.57;100.00
37132;BME280;23035;50.032;21.978;2022-10-26T22:30:25;66318.63;;;10.92;100.00
37132;BME280;23035;50.032;21.978;2022-10-26T22:35:29;66254.78;;;10.31;100.00
37132;BME280;23035;50.032;21.978;2022-10-26T22:40:34;66346.03;;;11.20;100.00
37132;BME280;23035;50.032;21.978;2022-10-26T22:45:38;66302.50;;;10.77;100.00
37132;BME280;23035;50.032;21.978;2022-10-26T22:50:42;66277.84;;;10.53;100.00
37132;BME280;23035;50.032;21.978;2022-10-26T22:55:48;66250.13;;;10.32;100.00
37132;BME280;23035;50.032;21.978;2022-10-26T23:00:51;66291.78;;;10.67;100.00
37132;BME280;23035;50.032;21.978;2022-10-26T23:05:55;66332.56;;;11.05;100.00
37132;BME280;23035;50.032;21.978;2022-10-26T23:11:03;66334.16;;;11.07;100.00
37132;BME280;23035;50.032;21.978;2022-10-26T23:16:09;66343.53;;;11.23;100.00
37132;BME280;23035;50.032;21.978;2022-10-26T23:21:14;66284.44;;;10.65;100.00
37132;BME280;23035;50.032;21.978;2022-10-26T23:26:20;66260.75;;;10.40;100.00
37132;BME280;23035;50.032;21.978;2022-10-26T23:31:26;66339.00;;;11.11;100.00
37132;BME280;23035;50.032;21.978;2022-10-26T23:36:29;66305.28;;;10.82;100.00
37132;BME280;23035;50.032;21.978;2022-10-26T23:41:35;66391.13;;;11.63;100.00
37132;BME280;23035;50.032;21.978;2022-10-26T23:46:38;66382.00;;;11.55;100.00
37132;BME280;23035;50.032;21.978;2022-10-26T23:51:42;66407.88;;;11.82;100.00
37132;BME280;23035;50.032;21.978;2022-10-26T23:56:47;66337.38;;;11.10;100.00
